Terminal Aerodrome Forecast
Issued by NWS Sterling, VA

Home | Current Version | Previous Version | Text Only | Print | Product List | Glossary On
Versions: 1 2 3 4 5 6 7 8 9 10 11 12 13 14 15 16 17 18 19
000
FTUS41 KLWX 262320
TAFCHO
TAF
KCHO 262320Z 2700/2724 11004KT P6SM OVC250
     FM270300 VRB03KT P6SM -RA OVC060
     FM271000 03005KT 5SM -RA OVC008
     FM271200 02004KT 3SM BR OVC008
     FM271500 35004KT P6SM OVC008
     FM272000 32004KT P6SM BKN035=

USA.gov is the U.S. government's official web portal to all federal, state and local government web resources and services.